sensor_id;sensor_type;location;lat;lon;timestamp;P1;durP1;ratioP1;P2;durP2;ratioP2
68806;SDS011;55800;54.272;18.558;2023-02-28T00:02:08;75.45;;;30.17;;
68806;SDS011;55800;54.272;18.558;2023-02-28T00:04:38;51.05;;;28.42;;
68806;SDS011;55800;54.272;18.558;2023-02-28T00:07:07;62.47;;;27.30;;
68806;SDS011;55800;54.272;18.558;2023-02-28T00:09:36;71.15;;;31.27;;
68806;SDS011;55800;54.272;18.558;2023-02-28T00:12:06;71.65;;;33.70;;
68806;SDS011;55800;54.272;18.558;2023-02-28T00:14:38;58.90;;;31.77;;
68806;SDS011;55800;54.272;18.558;2023-02-28T00:17:07;63.80;;;28.93;;
68806;SDS011;55800;54.272;18.558;2023-02-28T00:19:37;54.88;;;29.70;;
68806;SDS011;55800;54.272;18.558;2023-02-28T00:22:06;63.22;;;28.70;;
68806;SDS011;55800;54.272;18.558;2023-02-28T00:24:36;67.28;;;28.92;;
68806;SDS011;55800;54.272;18.558;2023-02-28T00:27:05;67.55;;;30.27;;
68806;SDS011;55800;54.272;18.558;2023-02-28T00:29:34;57.47;;;28.35;;
68806;SDS011;55800;54.272;18.558;2023-02-28T00:32:05;65.57;;;30.05;;
68806;SDS011;55800;54.272;18.558;2023-02-28T00:34:37;68.80;;;30.67;;
68806;SDS011;55800;54.272;18.558;2023-02-28T00:37:09;53.27;;;25.07;;
68806;SDS011;55800;54.272;18.558;2023-02-28T00:39:40;80.27;;;33.40;;
68806;SDS011;55800;54.272;18.558;2023-02-28T00:42:09;84.65;;;36.63;;
68806;SDS011;55800;54.272;18.558;2023-02-28T00:44:39;58.25;;;29.50;;
68806;SDS011;55800;54.272;18.558;2023-02-28T00:47:09;72.45;;;32.42;;
68806;SDS011;55800;54.272;18.558;2023-02-28T00:49:39;67.20;;;29.13;;
68806;SDS011;55800;54.272;18.558;2023-02-28T00:52:09;55.45;;;29.38;;
68806;SDS011;55800;54.272;18.558;2023-02-28T00:54:38;57.25;;;27.48;;
68806;SDS011;55800;54.272;18.558;2023-02-28T00:57:07;61.70;;;28.17;;
68806;SDS011;55800;54.272;18.558;2023-02-28T00:59:37;66.38;;;33.97;;
68806;SDS011;55800;54.272;18.558;2023-02-28T01:02:06;67.10;;;30.10;;
68806;SDS011;55800;54.272;18.558;2023-02-28T01:07:06;58.43;;;28.67;;
68806;SDS011;55800;54.272;18.558;2023-02-28T01:09:36;44.42;;;24.33;;
68806;SDS011;55800;54.272;18.558;2023-02-28T01:12:06;51.58;;;23.65;;
68806;SDS011;55800;54.272;18.558;2023-02-28T01:14:36;56.23;;;24.63;;
68806;SDS011;55800;54.272;18.558;2023-02-28T01:17:05;57.55;;;28.33;;
68806;SDS011;55800;54.272;18.558;2023-02-28T01:19:35;43.08;;;23.67;;
68806;SDS011;55800;54.272;18.558;2023-02-28T01:22:06;50.10;;;22.25;;
68806;SDS011;55800;54.272;18.558;2023-02-28T01:24:35;54.13;;;28.57;;
68806;SDS011;55800;54.272;18.558;2023-02-28T01:27:06;68.53;;;29.47;;
68806;SDS011;55800;54.272;18.558;2023-02-28T01:29:36;46.03;;;22.57;;
68806;SDS011;55800;54.272;18.558;2023-02-28T01:32:06;69.00;;;30.33;;
68806;SDS011;55800;54.272;18.558;2023-02-28T01:34:35;59.58;;;28.20;;
68806;SDS011;55800;54.272;18.558;2023-02-28T01:37:05;35.53;;;23.27;;
68806;SDS011;55800;54.272;18.558;2023-02-28T01:39:35;51.80;;;24.23;;
68806;SDS011;55800;54.272;18.558;2023-02-28T01:42:04;57.45;;;25.95;;
68806;SDS011;55800;54.272;18.558;2023-02-28T01:47:27;50.87;;;25.53;;
68806;SDS011;55800;54.272;18.558;2023-02-28T01:50:00;46.33;;;21.37;;
68806;SDS011;55800;54.272;18.558;2023-02-28T01:52:35;40.73;;;21.33;;
68806;SDS011;55800;54.272;18.558;2023-02-28T01:55:05;37.30;;;17.57;;
68806;SDS011;55800;54.272;18.558;2023-02-28T01:57:39;43.57;;;20.50;;
68806;SDS011;55800;54.272;18.558;2023-02-28T02:00:16;36.77;;;18.63;;
68806;SDS011;55800;54.272;18.558;2023-02-28T02:02:48;38.73;;;18.83;;
68806;SDS011;55800;54.272;18.558;2023-02-28T02:05:22;47.43;;;18.97;;
68806;SDS011;55800;54.272;18.558;2023-02-28T02:07:55;48.40;;;21.53;;
68806;SDS011;55800;54.272;18.558;2023-02-28T02:10:32;46.63;;;20.53;;
68806;SDS011;55800;54.272;18.558;2023-02-28T02:13:08;39.13;;;19.67;;
68806;SDS011;55800;54.272;18.558;2023-02-28T02:15:53;36.67;;;18.30;;
68806;SDS011;55800;54.272;18.558;2023-02-28T02:18:32;33.87;;;18.00;;
68806;SDS011;55800;54.272;18.558;2023-02-28T02:21:18;37.30;;;17.27;;
68806;SDS011;55800;54.272;18.558;2023-02-28T02:24:15;38.67;;;17.27;;
68806;SDS011;55800;54.272;18.558;2023-02-28T02:27:18;27.70;;;16.07;;
68806;SDS011;55800;54.272;18.558;2023-02-28T02:29:57;40.23;;;19.67;;
68806;SDS011;55800;54.272;18.558;2023-02-28T02:35:40;37.70;;;18.10;;
68806;SDS011;55800;54.272;18.558;2023-02-28T02:38:17;39.50;;;20.23;;
68806;SDS011;55800;54.272;18.558;2023-02-28T02:40:56;38.13;;;22.73;;
68806;SDS011;55800;54.272;18.558;2023-02-28T02:43:32;42.20;;;17.37;;
68806;SDS011;55800;54.272;18.558;2023-02-28T02:46:06;48.80;;;23.57;;
68806;SDS011;55800;54.272;18.558;2023-02-28T02:48:44;41.70;;;23.43;;
68806;SDS011;55800;54.272;18.558;2023-02-28T02:51:17;45.30;;;19.83;;
68806;SDS011;55800;54.272;18.558;2023-02-28T02:53:52;43.67;;;23.03;;
68806;SDS011;55800;54.272;18.558;2023-02-28T02:56:27;52.10;;;22.87;;
68806;SDS011;55800;54.272;18.558;2023-02-28T02:59:01;52.13;;;21.90;;
68806;SDS011;55800;54.272;18.558;2023-02-28T03:01:35;59.87;;;23.57;;
68806;SDS011;55800;54.272;18.558;2023-02-28T03:04:08;37.87;;;20.80;;
68806;SDS011;55800;54.272;18.558;2023-02-28T03:06:42;39.93;;;21.70;;
68806;SDS011;55800;54.272;18.558;2023-02-28T03:09:12;51.80;;;21.60;;
68806;SDS011;55800;54.272;18.558;2023-02-28T03:11:41;33.75;;;20.13;;
68806;SDS011;55800;54.272;18.558;2023-02-28T03:14:28;28.92;;;15.30;;
68806;SDS011;55800;54.272;18.558;2023-02-28T03:20:12;33.88;;;14.25;;
68806;SDS011;55800;54.272;18.558;2023-02-28T03:23:00;31.47;;;14.80;;
68806;SDS011;55800;54.272;18.558;2023-02-28T03:25:37;32.70;;;16.30;;
68806;SDS011;55800;54.272;18.558;2023-02-28T03:28:13;38.40;;;16.93;;
68806;SDS011;55800;54.272;18.558;2023-02-28T03:33:50;41.43;;;20.20;;
68806;SDS011;55800;54.272;18.558;2023-02-28T03:36:25;34.27;;;19.30;;
68806;SDS011;55800;54.272;18.558;2023-02-28T03:38:59;24.90;;;12.67;;
68806;SDS011;55800;54.272;18.558;2023-02-28T03:41:35;44.63;;;17.70;;
68806;SDS011;55800;54.272;18.558;2023-02-28T03:44:09;36.40;;;15.57;;
68806;SDS011;55800;54.272;18.558;2023-02-28T03:46:44;32.47;;;15.87;;
68806;SDS011;55800;54.272;18.558;2023-02-28T03:49:21;20.93;;;13.53;;
68806;SDS011;55800;54.272;18.558;2023-02-28T03:51:55;36.20;;;18.83;;
68806;SDS011;55800;54.272;18.558;2023-02-28T03:54:29;32.80;;;16.90;;
68806;SDS011;55800;54.272;18.558;2023-02-28T03:57:03;38.93;;;20.33;;
68806;SDS011;55800;54.272;18.558;2023-02-28T03:59:41;40.20;;;20.57;;
68806;SDS011;55800;54.272;18.558;2023-02-28T04:02:15;34.53;;;19.50;;
68806;SDS011;55800;54.272;18.558;2023-02-28T04:04:45;47.25;;;22.60;;
68806;SDS011;55800;54.272;18.558;2023-02-28T04:07:17;42.97;;;21.70;;
68806;SDS011;55800;54.272;18.558;2023-02-28T04:09:47;49.03;;;23.23;;
68806;SDS011;55800;54.272;18.558;2023-02-28T04:12:17;42.87;;;21.00;;
68806;SDS011;55800;54.272;18.558;2023-02-28T04:14:46;21.27;;;13.20;;
68806;SDS011;55800;54.272;18.558;2023-02-28T04:17:16;46.28;;;20.35;;
68806;SDS011;55800;54.272;18.558;2023-02-28T04:19:45;39.67;;;19.30;;
68806;SDS011;55800;54.272;18.558;2023-02-28T04:22:15;32.70;;;18.73;;
68806;SDS011;55800;54.272;18.558;2023-02-28T04:24:45;44.08;;;18.10;;
68806;SDS011;55800;54.272;18.558;2023-02-28T04:27:15;44.83;;;16.03;;
68806;SDS011;55800;54.272;18.558;2023-02-28T04:29:45;40.90;;;16.87;;
68806;SDS011;55800;54.272;18.558;2023-02-28T04:32:14;36.70;;;17.25;;
68806;SDS011;55800;54.272;18.558;2023-02-28T04:34:43;39.97;;;18.20;;
68806;SDS011;55800;54.272;18.558;2023-02-28T04:37:13;37.60;;;17.75;;
68806;SDS011;55800;54.272;18.558;2023-02-28T04:39:42;28.25;;;14.32;;
68806;SDS011;55800;54.272;18.558;2023-02-28T04:42:13;32.22;;;15.35;;
68806;SDS011;55800;54.272;18.558;2023-02-28T04:44:43;31.67;;;16.23;;
68806;SDS011;55800;54.272;18.558;2023-02-28T04:47:14;27.57;;;14.53;;
68806;SDS011;55800;54.272;18.558;2023-02-28T04:49:43;21.57;;;14.23;;
68806;SDS011;55800;54.272;18.558;2023-02-28T04:52:12;30.45;;;14.15;;
68806;SDS011;55800;54.272;18.558;2023-02-28T04:54:41;22.03;;;11.40;;
68806;SDS011;55800;54.272;18.558;2023-02-28T04:57:11;28.02;;;12.90;;
68806;SDS011;55800;54.272;18.558;2023-02-28T04:59:41;22.83;;;12.40;;
68806;SDS011;55800;54.272;18.558;2023-02-28T05:02:11;20.75;;;12.30;;
68806;SDS011;55800;54.272;18.558;2023-02-28T05:04:40;21.27;;;13.47;;
68806;SDS011;55800;54.272;18.558;2023-02-28T05:07:09;23.73;;;10.93;;
68806;SDS011;55800;54.272;18.558;2023-02-28T05:09:38;31.70;;;13.37;;
68806;SDS011;55800;54.272;18.558;2023-02-28T05:12:08;22.55;;;12.65;;
68806;SDS011;55800;54.272;18.558;2023-02-28T05:14:39;19.35;;;12.57;;
68806;SDS011;55800;54.272;18.558;2023-02-28T05:17:09;23.30;;;14.03;;
68806;SDS011;55800;54.272;18.558;2023-02-28T05:19:38;26.27;;;14.00;;
68806;SDS011;55800;54.272;18.558;2023-02-28T05:22:12;34.47;;;14.40;;
68806;SDS011;55800;54.272;18.558;2023-02-28T05:24:42;27.70;;;15.93;;
68806;SDS011;55800;54.272;18.558;2023-02-28T05:27:12;33.45;;;16.27;;
68806;SDS011;55800;54.272;18.558;2023-02-28T05:29:42;33.60;;;17.67;;
68806;SDS011;55800;54.272;18.558;2023-02-28T05:32:12;28.73;;;14.87;;
68806;SDS011;55800;54.272;18.558;2023-02-28T05:34:42;29.67;;;14.30;;
68806;SDS011;55800;54.272;18.558;2023-02-28T05:37:12;23.48;;;11.80;;
68806;SDS011;55800;54.272;18.558;2023-02-28T05:42:11;28.15;;;14.10;;
68806;SDS011;55800;54.272;18.558;2023-02-28T05:44:41;19.63;;;14.75;;
68806;SDS011;55800;54.272;18.558;2023-02-28T05:47:11;38.07;;;15.80;;
68806;SDS011;55800;54.272;18.558;2023-02-28T05:49:42;25.97;;;13.50;;
68806;SDS011;55800;54.272;18.558;2023-02-28T05:52:11;21.77;;;13.27;;
68806;SDS011;55800;54.272;18.558;2023-02-28T05:54:41;25.73;;;12.05;;
68806;SDS011;55800;54.272;18.558;2023-02-28T05:57:10;25.67;;;13.45;;
68806;SDS011;55800;54.272;18.558;2023-02-28T05:59:51;24.52;;;12.02;;
68806;SDS011;55800;54.272;18.558;2023-02-28T06:02:20;33.47;;;12.93;;
68806;SDS011;55800;54.272;18.558;2023-02-28T06:04:50;24.58;;;14.50;;
68806;SDS011;55800;54.272;18.558;2023-02-28T06:07:19;31.33;;;13.88;;
68806;SDS011;55800;54.272;18.558;2023-02-28T06:09:49;29.08;;;12.18;;
68806;SDS011;55800;54.272;18.558;2023-02-28T06:12:18;30.00;;;14.15;;
68806;SDS011;55800;54.272;18.558;2023-02-28T06:14:47;31.20;;;12.90;;
68806;SDS011;55800;54.272;18.558;2023-02-28T06:17:18;32.30;;;17.70;;
68806;SDS011;55800;54.272;18.558;2023-02-28T06:19:47;30.07;;;15.77;;
68806;SDS011;55800;54.272;18.558;2023-02-28T06:22:17;29.38;;;15.07;;
68806;SDS011;55800;54.272;18.558;2023-02-28T06:24:46;34.22;;;16.42;;
68806;SDS011;55800;54.272;18.558;2023-02-28T06:27:15;28.42;;;15.95;;
68806;SDS011;55800;54.272;18.558;2023-02-28T06:29:46;30.00;;;16.03;;
68806;SDS011;55800;54.272;18.558;2023-02-28T06:32:15;35.25;;;16.63;;
68806;SDS011;55800;54.272;18.558;2023-02-28T06:34:46;33.93;;;17.83;;
68806;SDS011;55800;54.272;18.558;2023-02-28T06:37:17;38.13;;;17.77;;
68806;SDS011;55800;54.272;18.558;2023-02-28T06:39:47;42.30;;;19.40;;
68806;SDS011;55800;54.272;18.558;2023-02-28T06:42:17;40.73;;;18.50;;
68806;SDS011;55800;54.272;18.558;2023-02-28T06:44:46;36.25;;;20.00;;
68806;SDS011;55800;54.272;18.558;2023-02-28T06:47:17;40.55;;;21.50;;
68806;SDS011;55800;54.272;18.558;2023-02-28T06:49:46;49.90;;;24.00;;
68806;SDS011;55800;54.272;18.558;2023-02-28T06:52:16;35.10;;;17.35;;
68806;SDS011;55800;54.272;18.558;2023-02-28T06:54:46;39.13;;;20.92;;
68806;SDS011;55800;54.272;18.558;2023-02-28T06:57:27;36.90;;;15.50;;
68806;SDS011;55800;54.272;18.558;2023-02-28T06:59:57;42.67;;;18.27;;
68806;SDS011;55800;54.272;18.558;2023-02-28T07:02:31;40.67;;;18.10;;
68806;SDS011;55800;54.272;18.558;2023-02-28T07:05:01;33.80;;;17.47;;
68806;SDS011;55800;54.272;18.558;2023-02-28T07:07:31;34.53;;;17.75;;
68806;SDS011;55800;54.272;18.558;2023-02-28T07:10:01;38.27;;;17.73;;
68806;SDS011;55800;54.272;18.558;2023-02-28T07:12:30;36.22;;;18.10;;
68806;SDS011;55800;54.272;18.558;2023-02-28T07:15:00;35.55;;;18.08;;
68806;SDS011;55800;54.272;18.558;2023-02-28T07:17:31;37.15;;;15.93;;
68806;SDS011;55800;54.272;18.558;2023-02-28T07:20:00;32.10;;;16.03;;
68806;SDS011;55800;54.272;18.558;2023-02-28T07:22:34;28.07;;;13.77;;
68806;SDS011;55800;54.272;18.558;2023-02-28T07:25:04;23.80;;;14.05;;
68806;SDS011;55800;54.272;18.558;2023-02-28T07:27:36;34.33;;;15.60;;
68806;SDS011;55800;54.272;18.558;2023-02-28T07:30:08;29.60;;;15.60;;
68806;SDS011;55800;54.272;18.558;2023-02-28T07:32:40;26.33;;;15.80;;
68806;SDS011;55800;54.272;18.558;2023-02-28T07:35:11;28.40;;;15.57;;
68806;SDS011;55800;54.272;18.558;2023-02-28T07:37:42;26.43;;;16.03;;
68806;SDS011;55800;54.272;18.558;2023-02-28T07:40:14;24.57;;;12.93;;
68806;SDS011;55800;54.272;18.558;2023-02-28T07:42:45;24.90;;;11.60;;
68806;SDS011;55800;54.272;18.558;2023-02-28T07:45:16;31.83;;;12.67;;
68806;SDS011;55800;54.272;18.558;2023-02-28T07:47:47;23.27;;;12.43;;
68806;SDS011;55800;54.272;18.558;2023-02-28T07:50:17;19.97;;;10.60;;
68806;SDS011;55800;54.272;18.558;2023-02-28T07:52:46;11.07;;;8.00;;
68806;SDS011;55800;54.272;18.558;2023-02-28T07:55:16;18.35;;;9.80;;
68806;SDS011;55800;54.272;18.558;2023-02-28T07:57:45;13.02;;;8.57;;
68806;SDS011;55800;54.272;18.558;2023-02-28T08:00:15;12.85;;;7.18;;
68806;SDS011;55800;54.272;18.558;2023-02-28T08:02:45;21.33;;;9.67;;
68806;SDS011;55800;54.272;18.558;2023-02-28T08:05:16;20.37;;;9.37;;
68806;SDS011;55800;54.272;18.558;2023-02-28T08:07:48;19.73;;;9.00;;
68806;SDS011;55800;54.272;18.558;2023-02-28T08:12:47;18.60;;;9.63;;
68806;SDS011;55800;54.272;18.558;2023-02-28T08:15:16;24.65;;;11.20;;
68806;SDS011;55800;54.272;18.558;2023-02-28T08:17:47;20.77;;;9.70;;
68806;SDS011;55800;54.272;18.558;2023-02-28T08:20:17;17.60;;;9.85;;
68806;SDS011;55800;54.272;18.558;2023-02-28T08:22:46;12.52;;;6.97;;
68806;SDS011;55800;54.272;18.558;2023-02-28T08:25:16;17.13;;;6.43;;
68806;SDS011;55800;54.272;18.558;2023-02-28T08:27:46;13.50;;;7.38;;
68806;SDS011;55800;54.272;18.558;2023-02-28T08:30:15;11.83;;;6.37;;
68806;SDS011;55800;54.272;18.558;2023-02-28T08:32:45;15.38;;;7.28;;
68806;SDS011;55800;54.272;18.558;2023-02-28T08:35:16;6.95;;;4.72;;
68806;SDS011;55800;54.272;18.558;2023-02-28T08:37:47;7.90;;;5.75;;
68806;SDS011;55800;54.272;18.558;2023-02-28T08:40:17;7.72;;;4.97;;
68806;SDS011;55800;54.272;18.558;2023-02-28T08:42:47;8.55;;;5.82;;
68806;SDS011;55800;54.272;18.558;2023-02-28T08:45:16;7.22;;;4.22;;
68806;SDS011;55800;54.272;18.558;2023-02-28T08:47:49;4.20;;;3.60;;
68806;SDS011;55800;54.272;18.558;2023-02-28T08:50:19;11.30;;;4.70;;
68806;SDS011;55800;54.272;18.558;2023-02-28T08:52:48;4.82;;;3.08;;
68806;SDS011;55800;54.272;18.558;2023-02-28T08:55:17;6.07;;;3.58;;
68806;SDS011;55800;54.272;18.558;2023-02-28T08:57:47;11.13;;;4.43;;
68806;SDS011;55800;54.272;18.558;2023-02-28T09:00:16;10.13;;;5.18;;
68806;SDS011;55800;54.272;18.558;2023-02-28T09:02:50;5.10;;;3.97;;
68806;SDS011;55800;54.272;18.558;2023-02-28T09:05:19;4.63;;;3.28;;
68806;SDS011;55800;54.272;18.558;2023-02-28T09:07:50;9.30;;;4.47;;
68806;SDS011;55800;54.272;18.558;2023-02-28T09:10:19;8.83;;;3.80;;
68806;SDS011;55800;54.272;18.558;2023-02-28T09:12:49;6.38;;;4.15;;
68806;SDS011;55800;54.272;18.558;2023-02-28T09:15:19;11.48;;;4.43;;
68806;SDS011;55800;54.272;18.558;2023-02-28T09:17:50;12.40;;;4.22;;
68806;SDS011;55800;54.272;18.558;2023-02-28T09:20:20;7.32;;;4.55;;
68806;SDS011;55800;54.272;18.558;2023-02-28T09:22:49;8.35;;;4.95;;
68806;SDS011;55800;54.272;18.558;2023-02-28T09:25:18;13.17;;;4.90;;
68806;SDS011;55800;54.272;18.558;2023-02-28T09:27:47;7.32;;;4.75;;
68806;SDS011;55800;54.272;18.558;2023-02-28T09:30:17;6.03;;;3.20;;
68806;SDS011;55800;54.272;18.558;2023-02-28T09:32:51;4.57;;;3.65;;
68806;SDS011;55800;54.272;18.558;2023-02-28T09:35:20;6.78;;;3.33;;
68806;SDS011;55800;54.272;18.558;2023-02-28T09:37:51;6.30;;;2.80;;
68806;SDS011;55800;54.272;18.558;2023-02-28T09:40:22;2.95;;;2.53;;
68806;SDS011;55800;54.272;18.558;2023-02-28T09:42:54;4.22;;;2.60;;
68806;SDS011;55800;54.272;18.558;2023-02-28T09:45:28;5.10;;;3.50;;
68806;SDS011;55800;54.272;18.558;2023-02-28T09:48:03;7.97;;;3.05;;
68806;SDS011;55800;54.272;18.558;2023-02-28T09:50:38;3.85;;;2.42;;
68806;SDS011;55800;54.272;18.558;2023-02-28T09:53:14;3.40;;;2.53;;
68806;SDS011;55800;54.272;18.558;2023-02-28T09:55:51;4.57;;;3.42;;
68806;SDS011;55800;54.272;18.558;2023-02-28T09:58:28;8.73;;;3.97;;
68806;SDS011;55800;54.272;18.558;2023-02-28T10:01:06;7.82;;;5.88;;
68806;SDS011;55800;54.272;18.558;2023-02-28T10:03:42;5.82;;;4.32;;
68806;SDS011;55800;54.272;18.558;2023-02-28T10:06:19;7.70;;;3.97;;
68806;SDS011;55800;54.272;18.558;2023-02-28T10:08:52;6.45;;;4.13;;
68806;SDS011;55800;54.272;18.558;2023-02-28T10:11:28;9.25;;;4.60;;
68806;SDS011;55800;54.272;18.558;2023-02-28T10:14:02;12.38;;;5.65;;
68806;SDS011;55800;54.272;18.558;2023-02-28T10:16:39;8.65;;;4.78;;
68806;SDS011;55800;54.272;18.558;2023-02-28T10:19:16;7.78;;;4.55;;
68806;SDS011;55800;54.272;18.558;2023-02-28T10:21:51;13.13;;;6.72;;
68806;SDS011;55800;54.272;18.558;2023-02-28T10:24:28;7.97;;;5.72;;
68806;SDS011;55800;54.272;18.558;2023-02-28T10:27:06;12.63;;;6.07;;
68806;SDS011;55800;54.272;18.558;2023-02-28T10:29:42;11.25;;;6.78;;
68806;SDS011;55800;54.272;18.558;2023-02-28T10:32:14;10.52;;;5.50;;
68806;SDS011;55800;54.272;18.558;2023-02-28T10:34:48;15.88;;;7.03;;
68806;SDS011;55800;54.272;18.558;2023-02-28T10:37:21;7.68;;;4.75;;
68806;SDS011;55800;54.272;18.558;2023-02-28T10:39:51;13.07;;;6.03;;
68806;SDS011;55800;54.272;18.558;2023-02-28T10:42:22;14.40;;;7.00;;
68806;SDS011;55800;54.272;18.558;2023-02-28T10:45:04;13.32;;;7.35;;
68806;SDS011;55800;54.272;18.558;2023-02-28T10:47:40;14.48;;;7.00;;
68806;SDS011;55800;54.272;18.558;2023-02-28T10:50:28;11.73;;;8.05;;
68806;SDS011;55800;54.272;18.558;2023-02-28T10:53:05;9.23;;;5.35;;
68806;SDS011;55800;54.272;18.558;2023-02-28T10:55:45;8.32;;;5.80;;
68806;SDS011;55800;54.272;18.558;2023-02-28T10:58:24;11.93;;;5.97;;
68806;SDS011;55800;54.272;18.558;2023-02-28T11:00:56;10.00;;;6.35;;
68806;SDS011;55800;54.272;18.558;2023-02-28T11:03:29;11.02;;;5.90;;
68806;SDS011;55800;54.272;18.558;2023-02-28T11:06:05;15.60;;;7.50;;
68806;SDS011;55800;54.272;18.558;2023-02-28T11:08:48;7.90;;;5.00;;
68806;SDS011;55800;54.272;18.558;2023-02-28T11:11:20;10.63;;;4.57;;
68806;SDS011;55800;54.272;18.558;2023-02-28T11:13:52;12.30;;;6.30;;
68806;SDS011;55800;54.272;18.558;2023-02-28T11:16:31;10.85;;;4.60;;
68806;SDS011;55800;54.272;18.558;2023-02-28T11:19:02;6.82;;;4.40;;
68806;SDS011;55800;54.272;18.558;2023-02-28T11:21:36;7.82;;;4.47;;
68806;SDS011;55800;54.272;18.558;2023-02-28T11:24:12;12.88;;;6.35;;
68806;SDS011;55800;54.272;18.558;2023-02-28T11:26:49;9.27;;;5.38;;
68806;SDS011;55800;54.272;18.558;2023-02-28T11:29:20;10.38;;;5.85;;
68806;SDS011;55800;54.272;18.558;2023-02-28T11:32:11;8.43;;;6.00;;
68806;SDS011;55800;54.272;18.558;2023-02-28T11:34:44;8.07;;;5.22;;
68806;SDS011;55800;54.272;18.558;2023-02-28T11:37:16;12.55;;;6.15;;
68806;SDS011;55800;54.272;18.558;2023-02-28T11:39:47;15.00;;;7.85;;
68806;SDS011;55800;54.272;18.558;2023-02-28T11:42:23;6.35;;;4.38;;
68806;SDS011;55800;54.272;18.558;2023-02-28T11:45:08;11.68;;;5.97;;
68806;SDS011;55800;54.272;18.558;2023-02-28T11:47:48;12.88;;;5.10;;
68806;SDS011;55800;54.272;18.558;2023-02-28T11:50:27;10.02;;;5.25;;
68806;SDS011;55800;54.272;18.558;2023-02-28T11:53:14;10.90;;;6.53;;
68806;SDS011;55800;54.272;18.558;2023-02-28T11:55:54;9.27;;;5.30;;
68806;SDS011;55800;54.272;18.558;2023-02-28T11:58:33;8.77;;;4.68;;
68806;SDS011;55800;54.272;18.558;2023-02-28T12:01:17;12.48;;;6.50;;
68806;SDS011;55800;54.272;18.558;2023-02-28T12:04:04;9.88;;;5.15;;
68806;SDS011;55800;54.272;18.558;2023-02-28T12:06:46;9.38;;;5.30;;
68806;SDS011;55800;54.272;18.558;2023-02-28T12:09:30;12.57;;;6.07;;
68806;SDS011;55800;54.272;18.558;2023-02-28T12:12:19;11.10;;;5.25;;
68806;SDS011;55800;54.272;18.558;2023-02-28T12:14:57;8.75;;;5.13;;
68806;SDS011;55800;54.272;18.558;2023-02-28T12:17:48;10.65;;;6.15;;
68806;SDS011;55800;54.272;18.558;2023-02-28T12:20:32;9.02;;;5.47;;
68806;SDS011;55800;54.272;18.558;2023-02-28T12:23:14;11.38;;;5.95;;
68806;SDS011;55800;54.272;18.558;2023-02-28T12:26:04;12.13;;;5.45;;
68806;SDS011;55800;54.272;18.558;2023-02-28T12:28:40;11.07;;;5.47;;
68806;SDS011;55800;54.272;18.558;2023-02-28T12:31:16;10.00;;;4.97;;
68806;SDS011;55800;54.272;18.558;2023-02-28T12:33:50;8.88;;;4.88;;
68806;SDS011;55800;54.272;18.558;2023-02-28T12:36:22;9.02;;;4.93;;
68806;SDS011;55800;54.272;18.558;2023-02-28T12:38:53;11.05;;;5.43;;
68806;SDS011;55800;54.272;18.558;2023-02-28T12:41:33;9.00;;;4.93;;
68806;SDS011;55800;54.272;18.558;2023-02-28T12:44:07;8.77;;;4.88;;
68806;SDS011;55800;54.272;18.558;2023-02-28T12:46:41;7.70;;;4.20;;
68806;SDS011;55800;54.272;18.558;2023-02-28T12:49:16;7.55;;;4.88;;
68806;SDS011;55800;54.272;18.558;2023-02-28T12:51:50;8.02;;;4.40;;
68806;SDS011;55800;54.272;18.558;2023-02-28T12:56:56;13.18;;;4.85;;
68806;SDS011;55800;54.272;18.558;2023-02-28T12:59:36;10.35;;;4.60;;
68806;SDS011;55800;54.272;18.558;2023-02-28T13:02:13;10.27;;;5.03;;
68806;SDS011;55800;54.272;18.558;2023-02-28T13:05:00;11.35;;;4.68;;
68806;SDS011;55800;54.272;18.558;2023-02-28T13:11:07;12.15;;;5.03;;
68806;SDS011;55800;54.272;18.558;2023-02-28T13:13:58;9.30;;;4.03;;
68806;SDS011;55800;54.272;18.558;2023-02-28T13:19:23;9.88;;;5.03;;
68806;SDS011;55800;54.272;18.558;2023-02-28T13:21:55;9.90;;;5.22;;
68806;SDS011;55800;54.272;18.558;2023-02-28T13:24:42;8.98;;;4.65;;
68806;SDS011;55800;54.272;18.558;2023-02-28T13:32:51;6.82;;;4.13;;
68806;SDS011;55800;54.272;18.558;2023-02-28T13:36:22;10.90;;;4.22;;
68806;SDS011;55800;54.272;18.558;2023-02-28T13:38:56;10.10;;;4.20;;
68806;SDS011;55800;54.272;18.558;2023-02-28T13:41:44;11.75;;;6.10;;
68806;SDS011;55800;54.272;18.558;2023-02-28T13:44:18;8.60;;;4.75;;
68806;SDS011;55800;54.272;18.558;2023-02-28T13:49:52;10.05;;;5.13;;
68806;SDS011;55800;54.272;18.558;2023-02-28T13:52:23;12.18;;;5.55;;
68806;SDS011;55800;54.272;18.558;2023-02-28T13:54:58;8.90;;;4.80;;
68806;SDS011;55800;54.272;18.558;2023-02-28T14:00:54;11.80;;;5.43;;
68806;SDS011;55800;54.272;18.558;2023-02-28T14:03:54;10.60;;;4.93;;
68806;SDS011;55800;54.272;18.558;2023-02-28T14:06:39;9.88;;;4.22;;
68806;SDS011;55800;54.272;18.558;2023-02-28T14:09:19;9.27;;;3.42;;
68806;SDS011;55800;54.272;18.558;2023-02-28T14:11:52;11.88;;;4.82;;
68806;SDS011;55800;54.272;18.558;2023-02-28T14:17:23;7.63;;;3.97;;
68806;SDS011;55800;54.272;18.558;2023-02-28T14:19:54;10.32;;;3.92;;
68806;SDS011;55800;54.272;18.558;2023-02-28T14:22:37;12.15;;;3.92;;
68806;SDS011;55800;54.272;18.558;2023-02-28T14:25:20;10.40;;;4.57;;
68806;SDS011;55800;54.272;18.558;2023-02-28T14:28:03;9.82;;;4.55;;
68806;SDS011;55800;54.272;18.558;2023-02-28T14:30:45;11.30;;;4.05;;
68806;SDS011;55800;54.272;18.558;2023-02-28T14:33:26;11.60;;;4.65;;
68806;SDS011;55800;54.272;18.558;2023-02-28T14:36:22;7.05;;;4.07;;
68806;SDS011;55800;54.272;18.558;2023-02-28T14:38:57;13.45;;;5.10;;
68806;SDS011;55800;54.272;18.558;2023-02-28T14:41:30;9.98;;;4.38;;
68806;SDS011;55800;54.272;18.558;2023-02-28T14:44:03;12.35;;;4.45;;
68806;SDS011;55800;54.272;18.558;2023-02-28T14:46:42;9.63;;;4.78;;
68806;SDS011;55800;54.272;18.558;2023-02-28T14:49:15;9.40;;;4.30;;
68806;SDS011;55800;54.272;18.558;2023-02-28T14:51:51;9.52;;;3.50;;
68806;SDS011;55800;54.272;18.558;2023-02-28T14:54:32;8.45;;;4.10;;
68806;SDS011;55800;54.272;18.558;2023-02-28T14:57:03;12.05;;;5.60;;
68806;SDS011;55800;54.272;18.558;2023-02-28T15:02:16;6.78;;;3.42;;
68806;SDS011;55800;54.272;18.558;2023-02-28T15:04:54;7.38;;;3.17;;
68806;SDS011;55800;54.272;18.558;2023-02-28T15:07:27;8.10;;;4.07;;
68806;SDS011;55800;54.272;18.558;2023-02-28T15:10:08;9.23;;;3.10;;
68806;SDS011;55800;54.272;18.558;2023-02-28T15:12:44;8.40;;;3.25;;
68806;SDS011;55800;54.272;18.558;2023-02-28T15:15:19;7.35;;;3.78;;
68806;SDS011;55800;54.272;18.558;2023-02-28T15:18:06;8.85;;;3.97;;
68806;SDS011;55800;54.272;18.558;2023-02-28T15:20:42;8.70;;;3.30;;
68806;SDS011;55800;54.272;18.558;2023-02-28T15:23:15;6.70;;;3.60;;
68806;SDS011;55800;54.272;18.558;2023-02-28T15:25:46;7.75;;;3.78;;
68806;SDS011;55800;54.272;18.558;2023-02-28T15:28:18;9.52;;;3.83;;
68806;SDS011;55800;54.272;18.558;2023-02-28T15:30:51;9.00;;;3.90;;
68806;SDS011;55800;54.272;18.558;2023-02-28T15:33:23;14.45;;;3.92;;
68806;SDS011;55800;54.272;18.558;2023-02-28T15:36:11;10.27;;;4.80;;
68806;SDS011;55800;54.272;18.558;2023-02-28T15:38:44;9.52;;;4.80;;
68806;SDS011;55800;54.272;18.558;2023-02-28T15:41:27;9.05;;;4.63;;
68806;SDS011;55800;54.272;18.558;2023-02-28T15:44:14;9.30;;;4.38;;